This is the latest recevied weather packets stored in our database for station/object KE8RXN. If no packets are shown the sender has not sent any weather packets the latest 1 day(s).
| Time | Temp. | Humidity | Pressure | Rain* | Wind** | Luminosity | Snow |
|---|---|---|---|---|---|---|---|
| 1777987619 | 9.44° C | 62% | 1010.7 hPa | 0 mm | 0.45 m/s, 8° | 331 W/m² | - |
| 1777987317 | 8.89° C | 65% | 1011 hPa | 0 mm | 0.89 m/s, 332° | 167 W/m² | - |
| 1777987014 | 8.89° C | 70% | 1010.7 hPa | 0 mm | 0.89 m/s, 312° | 177 W/m² | - |
| 1777986711 | 8.89° C | 69% | 1010.4 hPa | 0 mm | 0.89 m/s, 296° | 119 W/m² | - |
| 1777986409 | 8.89° C | 68% | 1010.5 hPa | 0 mm | 0.89 m/s, 23° | 136 W/m² | - |
| 1777986107 | 8.89° C | 71% | 1010.5 hPa | 0 mm | 1.34 m/s, 305° | 121 W/m² | - |
| 1777985803 | 8.89° C | 75% | 1010.5 hPa | 0 mm | 0.89 m/s, 269° | 130 W/m² | - |
| 1777985500 | 8.89° C | 75% | 1010.5 hPa | 0 mm | 1.34 m/s, 226° | 123 W/m² | - |
| 1777985191 | 8.89° C | 76% | 1010.2 hPa | 0 mm | 0.45 m/s, 261° | 89 W/m² | - |
| 1777984888 | 8.89° C | 76% | 1010 hPa | 0 mm | 0.45 m/s, 15° | 38 W/m² | - |
| 1777984587 | 8.89° C | 77% | 1010 hPa | 0 mm | 0.45 m/s, 357° | 66 W/m² | - |
| 1777984281 | 8.89° C | 77% | 1010 hPa | 0 mm | 0.45 m/s, 13° | 56 W/m² | - |
| 1777983977 | 8.89° C | 77% | 1009.3 hPa | 0 mm | 1.34 m/s, 299° | 134 W/m² | - |
| 1777983675 | 8.89° C | 77% | 1009.1 hPa | 0 mm | 1.34 m/s, 332° | 96 W/m² | - |
| 1777983371 | 8.89° C | 77% | 1009 hPa | 0 mm | 0.45 m/s, 8° | 58 W/m² | - |
| 1777983068 | 8.89° C | 77% | 1008.9 hPa | 0 mm | 0.89 m/s, 319° | 49 W/m² | - |
| 1777982764 | 8.89° C | 76% | 1009 hPa | 0 mm | 0.89 m/s, 308° | 42 W/m² | - |
| 1777982460 | 8.89° C | 76% | 1009 hPa | 0 mm | 0.89 m/s, 343° | 25 W/m² | - |
| 1777982154 | 8.89° C | 75% | 1008.7 hPa | 0 mm | 0.89 m/s, 322° | 45 W/m² | - |
| 1777981851 | 8.89° C | 75% | 1009 hPa | 0 mm | 0.45 m/s, 5° | 69 W/m² | - |
| 1777981543 | 8.89° C | 76% | 1009 hPa | 0 mm | 1.34 m/s, 344° | 68 W/m² | - |
| 1777981239 | 8.89° C | 76% | 1008.8 hPa | 0 mm | 1.34 m/s, 271° | 61 W/m² | - |
| 1777980936 | 8.89° C | 78% | 1008.8 hPa | 0 mm | 0.89 m/s, 298° | 44 W/m² | - |
| 1777980632 | 8.89° C | 79% | 1008.8 hPa | 0 mm | 0.89 m/s, 6° | 49 W/m² | - |
| 1777980328 | 8.89° C | 79% | 1008.5 hPa | 0 mm | 0.89 m/s, 340° | 27 W/m² | - |
* Rain latest hour (hover to see other rain measurements)
** Current wind speed in m/s (hover to see current wind gust speed)